sensor_id;sensor_type;location;lat;lon;timestamp;temperature;humidity
9497;DHT22;4786;51.270;4.456;2023-04-12T00:01:17;9.90;99.90
9497;DHT22;4786;51.270;4.456;2023-04-12T00:03:43;9.90;99.90
9497;DHT22;4786;51.270;4.456;2023-04-12T00:06:17;10.00;99.90
9497;DHT22;4786;51.270;4.456;2023-04-12T00:08:43;10.00;99.90
9497;DHT22;4786;51.270;4.456;2023-04-12T00:11:11;10.00;99.90
9497;DHT22;4786;51.270;4.456;2023-04-12T00:13:37;9.90;99.90
9497;DHT22;4786;51.270;4.456;2023-04-12T00:16:03;10.00;99.90
9497;DHT22;4786;51.270;4.456;2023-04-12T00:18:29;9.90;99.90
9497;DHT22;4786;51.270;4.456;2023-04-12T00:20:55;9.90;99.90
9497;DHT22;4786;51.270;4.456;2023-04-12T00:23:21;10.10;99.90
9497;DHT22;4786;51.270;4.456;2023-04-12T00:25:47;9.80;99.90
9497;DHT22;4786;51.270;4.456;2023-04-12T00:28:14;9.90;99.90
9497;DHT22;4786;51.270;4.456;2023-04-12T00:30:42;9.90;99.90
9497;DHT22;4786;51.270;4.456;2023-04-12T00:33:14;9.90;99.90
9497;DHT22;4786;51.270;4.456;2023-04-12T00:35:40;9.80;99.90
9497;DHT22;4786;51.270;4.456;2023-04-12T00:38:06;9.80;99.90
9497;DHT22;4786;51.270;4.456;2023-04-12T00:40:35;9.90;99.90
9497;DHT22;4786;51.270;4.456;2023-04-12T00:43:01;9.80;99.90
9497;DHT22;4786;51.270;4.456;2023-04-12T00:45:27;9.70;99.90
9497;DHT22;4786;51.270;4.456;2023-04-12T00:47:53;10.00;99.90
9497;DHT22;4786;51.270;4.456;2023-04-12T00:50:20;9.70;99.90
9497;DHT22;4786;51.270;4.456;2023-04-12T00:52:47;9.80;99.90
9497;DHT22;4786;51.270;4.456;2023-04-12T00:55:13;9.70;99.90
9497;DHT22;4786;51.270;4.456;2023-04-12T00:57:40;9.70;99.90
9497;DHT22;4786;51.270;4.456;2023-04-12T01:00:08;9.70;99.90
9497;DHT22;4786;51.270;4.456;2023-04-12T01:02:36;9.70;99.90
9497;DHT22;4786;51.270;4.456;2023-04-12T01:05:04;9.70;99.90
9497;DHT22;4786;51.270;4.456;2023-04-12T01:13:35;9.70;99.90
9497;DHT22;4786;51.270;4.456;2023-04-12T01:18:41;9.80;99.90
9497;DHT22;4786;51.270;4.456;2023-04-12T01:21:17;9.70;99.90
9497;DHT22;4786;51.270;4.456;2023-04-12T01:24:08;9.70;99.90
9497;DHT22;4786;51.270;4.456;2023-04-12T01:26:46;9.70;99.90
9497;DHT22;4786;51.270;4.456;2023-04-12T01:29:18;9.70;99.90
9497;DHT22;4786;51.270;4.456;2023-04-12T01:31:53;9.70;99.90
9497;DHT22;4786;51.270;4.456;2023-04-12T01:34:21;9.60;99.90
9497;DHT22;4786;51.270;4.456;2023-04-12T01:36:48;9.60;99.90
9497;DHT22;4786;51.270;4.456;2023-04-12T01:39:16;9.60;99.90
9497;DHT22;4786;51.270;4.456;2023-04-12T01:41:42;9.60;99.90
9497;DHT22;4786;51.270;4.456;2023-04-12T01:44:14;9.60;99.90
9497;DHT22;4786;51.270;4.456;2023-04-12T01:46:40;9.70;99.90
9497;DHT22;4786;51.270;4.456;2023-04-12T01:49:06;9.70;99.90
9497;DHT22;4786;51.270;4.456;2023-04-12T01:54:12;9.70;99.90
9497;DHT22;4786;51.270;4.456;2023-04-12T01:56:43;9.80;99.90
9497;DHT22;4786;51.270;4.456;2023-04-12T01:59:13;9.70;99.90
9497;DHT22;4786;51.270;4.456;2023-04-12T02:01:41;9.70;99.90
9497;DHT22;4786;51.270;4.456;2023-04-12T02:04:08;9.70;99.90
9497;DHT22;4786;51.270;4.456;2023-04-12T02:06:35;9.60;99.90
9497;DHT22;4786;51.270;4.456;2023-04-12T02:09:03;9.70;99.90
9497;DHT22;4786;51.270;4.456;2023-04-12T02:11:32;9.80;99.90
9497;DHT22;4786;51.270;4.456;2023-04-12T02:13:58;9.70;99.90
9497;DHT22;4786;51.270;4.456;2023-04-12T02:16:24;9.70;99.90
9497;DHT22;4786;51.270;4.456;2023-04-12T02:18:53;9.70;99.90
9497;DHT22;4786;51.270;4.456;2023-04-12T02:21:21;9.70;99.90
9497;DHT22;4786;51.270;4.456;2023-04-12T02:23:47;9.70;99.90
9497;DHT22;4786;51.270;4.456;2023-04-12T02:26:13;9.70;99.90
9497;DHT22;4786;51.270;4.456;2023-04-12T02:28:39;9.70;99.90
9497;DHT22;4786;51.270;4.456;2023-04-12T02:31:05;9.70;99.90
9497;DHT22;4786;51.270;4.456;2023-04-12T02:33:32;9.60;99.90
9497;DHT22;4786;51.270;4.456;2023-04-12T02:35:58;9.70;99.90
9497;DHT22;4786;51.270;4.456;2023-04-12T02:38:24;9.70;99.90
9497;DHT22;4786;51.270;4.456;2023-04-12T02:40:50;9.70;99.90
9497;DHT22;4786;51.270;4.456;2023-04-12T02:43:16;9.80;99.90
9497;DHT22;4786;51.270;4.456;2023-04-12T02:45:42;9.70;99.90
9497;DHT22;4786;51.270;4.456;2023-04-12T02:48:08;9.70;99.90
9497;DHT22;4786;51.270;4.456;2023-04-12T02:50:35;9.70;99.90
9497;DHT22;4786;51.270;4.456;2023-04-12T02:53:01;9.60;99.90
9497;DHT22;4786;51.270;4.456;2023-04-12T02:55:27;9.60;99.90
9497;DHT22;4786;51.270;4.456;2023-04-12T02:57:55;9.60;99.90
9497;DHT22;4786;51.270;4.456;2023-04-12T03:00:22;9.60;99.90
9497;DHT22;4786;51.270;4.456;2023-04-12T03:02:48;9.70;99.90
9497;DHT22;4786;51.270;4.456;2023-04-12T03:05:17;9.70;99.90
9497;DHT22;4786;51.270;4.456;2023-04-12T03:07:43;9.70;99.90
9497;DHT22;4786;51.270;4.456;2023-04-12T03:10:10;9.70;99.90
9497;DHT22;4786;51.270;4.456;2023-04-12T03:12:38;9.70;99.90
9497;DHT22;4786;51.270;4.456;2023-04-12T03:15:05;9.70;99.90
9497;DHT22;4786;51.270;4.456;2023-04-12T03:17:31;9.70;99.90
9497;DHT22;4786;51.270;4.456;2023-04-12T03:20:03;9.70;99.90
9497;DHT22;4786;51.270;4.456;2023-04-12T03:22:32;9.70;99.90
9497;DHT22;4786;51.270;4.456;2023-04-12T03:24:57;9.80;99.90
9497;DHT22;4786;51.270;4.456;2023-04-12T03:27:23;10.00;99.90
9497;DHT22;4786;51.270;4.456;2023-04-12T03:29:49;9.80;99.90
9497;DHT22;4786;51.270;4.456;2023-04-12T03:32:16;9.90;99.90
9497;DHT22;4786;51.270;4.456;2023-04-12T03:34:42;9.90;99.90
9497;DHT22;4786;51.270;4.456;2023-04-12T03:37:10;9.90;99.90
9497;DHT22;4786;51.270;4.456;2023-04-12T03:39:36;9.80;99.90
9497;DHT22;4786;51.270;4.456;2023-04-12T03:42:02;9.90;99.90
9497;DHT22;4786;51.270;4.456;2023-04-12T03:44:27;10.00;99.90
9497;DHT22;4786;51.270;4.456;2023-04-12T03:46:53;10.00;99.90
9497;DHT22;4786;51.270;4.456;2023-04-12T03:49:19;10.10;99.90
9497;DHT22;4786;51.270;4.456;2023-04-12T03:51:45;10.00;99.90
9497;DHT22;4786;51.270;4.456;2023-04-12T03:54:12;10.00;99.90
9497;DHT22;4786;51.270;4.456;2023-04-12T03:56:38;9.90;99.90
9497;DHT22;4786;51.270;4.456;2023-04-12T03:59:05;10.00;99.90
9497;DHT22;4786;51.270;4.456;2023-04-12T04:01:33;10.00;99.90
9497;DHT22;4786;51.270;4.456;2023-04-12T04:03:59;9.90;99.90
9497;DHT22;4786;51.270;4.456;2023-04-12T04:06:25;9.90;99.90
9497;DHT22;4786;51.270;4.456;2023-04-12T04:08:51;9.90;99.90
9497;DHT22;4786;51.270;4.456;2023-04-12T04:11:17;10.10;99.90
9497;DHT22;4786;51.270;4.456;2023-04-12T04:13:42;10.10;99.90
9497;DHT22;4786;51.270;4.456;2023-04-12T04:16:08;10.10;99.90
9497;DHT22;4786;51.270;4.456;2023-04-12T04:18:35;10.10;99.90
9497;DHT22;4786;51.270;4.456;2023-04-12T04:21:01;10.00;99.90
9497;DHT22;4786;51.270;4.456;2023-04-12T04:23:27;10.00;99.90
9497;DHT22;4786;51.270;4.456;2023-04-12T04:25:55;10.00;99.90
9497;DHT22;4786;51.270;4.456;2023-04-12T04:28:21;9.90;99.90
9497;DHT22;4786;51.270;4.456;2023-04-12T04:30:47;10.00;99.90
9497;DHT22;4786;51.270;4.456;2023-04-12T04:33:13;10.00;99.90
9497;DHT22;4786;51.270;4.456;2023-04-12T04:35:41;10.10;99.90
9497;DHT22;4786;51.270;4.456;2023-04-12T04:38:07;10.10;99.90
9497;DHT22;4786;51.270;4.456;2023-04-12T04:40:36;10.20;99.90
9497;DHT22;4786;51.270;4.456;2023-04-12T04:43:01;10.20;99.90
9497;DHT22;4786;51.270;4.456;2023-04-12T04:45:27;10.10;99.90
9497;DHT22;4786;51.270;4.456;2023-04-12T04:47:55;10.10;99.90
9497;DHT22;4786;51.270;4.456;2023-04-12T04:50:21;10.10;99.90
9497;DHT22;4786;51.270;4.456;2023-04-12T04:52:51;10.10;99.90
9497;DHT22;4786;51.270;4.456;2023-04-12T04:55:17;10.10;99.90
9497;DHT22;4786;51.270;4.456;2023-04-12T04:57:44;10.10;99.90
9497;DHT22;4786;51.270;4.456;2023-04-12T05:00:10;10.10;99.90
9497;DHT22;4786;51.270;4.456;2023-04-12T05:02:37;10.10;99.90
9497;DHT22;4786;51.270;4.456;2023-04-12T05:05:05;10.10;99.90
9497;DHT22;4786;51.270;4.456;2023-04-12T05:07:31;10.10;99.90
9497;DHT22;4786;51.270;4.456;2023-04-12T05:09:57;10.20;99.90
9497;DHT22;4786;51.270;4.456;2023-04-12T05:12:23;10.30;99.90
9497;DHT22;4786;51.270;4.456;2023-04-12T05:14:49;10.20;99.90
9497;DHT22;4786;51.270;4.456;2023-04-12T05:17:15;10.20;99.90
9497;DHT22;4786;51.270;4.456;2023-04-12T05:19:42;10.20;99.90
9497;DHT22;4786;51.270;4.456;2023-04-12T05:22:09;10.10;99.90
9497;DHT22;4786;51.270;4.456;2023-04-12T05:24:35;10.10;99.90
9497;DHT22;4786;51.270;4.456;2023-04-12T05:27:01;10.10;99.90
9497;DHT22;4786;51.270;4.456;2023-04-12T05:29:28;10.20;99.90
9497;DHT22;4786;51.270;4.456;2023-04-12T05:31:54;10.20;99.90
9497;DHT22;4786;51.270;4.456;2023-04-12T05:34:20;10.20;99.90
9497;DHT22;4786;51.270;4.456;2023-04-12T05:36:46;10.20;99.90
9497;DHT22;4786;51.270;4.456;2023-04-12T05:39:12;10.30;99.90
9497;DHT22;4786;51.270;4.456;2023-04-12T05:41:38;10.30;99.90
9497;DHT22;4786;51.270;4.456;2023-04-12T05:44:04;10.40;99.90
9497;DHT22;4786;51.270;4.456;2023-04-12T05:46:30;10.40;99.90
9497;DHT22;4786;51.270;4.456;2023-04-12T05:48:56;10.40;99.90
9497;DHT22;4786;51.270;4.456;2023-04-12T05:51:23;10.40;99.90
9497;DHT22;4786;51.270;4.456;2023-04-12T05:53:48;10.40;99.90
9497;DHT22;4786;51.270;4.456;2023-04-12T05:56:14;10.40;99.90
9497;DHT22;4786;51.270;4.456;2023-04-12T05:58:41;10.50;99.90
9497;DHT22;4786;51.270;4.456;2023-04-12T06:01:06;10.60;99.90
9497;DHT22;4786;51.270;4.456;2023-04-12T06:03:33;10.40;99.90
9497;DHT22;4786;51.270;4.456;2023-04-12T06:05:58;10.40;99.90
9497;DHT22;4786;51.270;4.456;2023-04-12T06:08:27;10.50;99.90
9497;DHT22;4786;51.270;4.456;2023-04-12T06:10:53;10.50;99.90
9497;DHT22;4786;51.270;4.456;2023-04-12T06:13:19;10.50;99.90
9497;DHT22;4786;51.270;4.456;2023-04-12T06:15:46;10.50;99.90
9497;DHT22;4786;51.270;4.456;2023-04-12T06:18:12;10.50;99.90
9497;DHT22;4786;51.270;4.456;2023-04-12T06:20:38;10.60;99.90
9497;DHT22;4786;51.270;4.456;2023-04-12T06:23:04;10.50;99.90
9497;DHT22;4786;51.270;4.456;2023-04-12T06:25:31;10.50;99.90
9497;DHT22;4786;51.270;4.456;2023-04-12T06:27:57;10.60;99.90
9497;DHT22;4786;51.270;4.456;2023-04-12T06:30:23;10.60;99.90
9497;DHT22;4786;51.270;4.456;2023-04-12T06:32:49;10.60;99.90
9497;DHT22;4786;51.270;4.456;2023-04-12T06:35:15;10.60;99.90
9497;DHT22;4786;51.270;4.456;2023-04-12T06:37:41;10.60;99.90
9497;DHT22;4786;51.270;4.456;2023-04-12T06:40:07;10.60;99.90
9497;DHT22;4786;51.270;4.456;2023-04-12T06:42:33;10.70;99.90
9497;DHT22;4786;51.270;4.456;2023-04-12T06:44:59;10.70;99.90
9497;DHT22;4786;51.270;4.456;2023-04-12T06:47:24;10.70;99.90
9497;DHT22;4786;51.270;4.456;2023-04-12T06:49:51;10.70;99.90
9497;DHT22;4786;51.270;4.456;2023-04-12T06:52:25;10.80;99.90
9497;DHT22;4786;51.270;4.456;2023-04-12T06:54:52;10.80;99.90
9497;DHT22;4786;51.270;4.456;2023-04-12T06:57:18;10.80;99.90
9497;DHT22;4786;51.270;4.456;2023-04-12T06:59:43;10.70;99.90
9497;DHT22;4786;51.270;4.456;2023-04-12T07:02:09;10.60;99.90
9497;DHT22;4786;51.270;4.456;2023-04-12T07:04:35;10.70;99.90
9497;DHT22;4786;51.270;4.456;2023-04-12T07:07:01;10.70;99.90
9497;DHT22;4786;51.270;4.456;2023-04-12T07:09:26;10.80;99.90
9497;DHT22;4786;51.270;4.456;2023-04-12T07:11:52;10.90;99.90
9497;DHT22;4786;51.270;4.456;2023-04-12T07:14:18;10.90;99.90
9497;DHT22;4786;51.270;4.456;2023-04-12T07:16:44;11.00;99.90
9497;DHT22;4786;51.270;4.456;2023-04-12T07:19:10;11.10;99.90
9497;DHT22;4786;51.270;4.456;2023-04-12T07:21:36;11.20;99.90
9497;DHT22;4786;51.270;4.456;2023-04-12T07:24:02;11.30;99.90
9497;DHT22;4786;51.270;4.456;2023-04-12T07:26:28;11.50;99.90
9497;DHT22;4786;51.270;4.456;2023-04-12T07:28:55;11.60;99.90
9497;DHT22;4786;51.270;4.456;2023-04-12T07:31:21;11.70;99.90
9497;DHT22;4786;51.270;4.456;2023-04-12T07:33:48;11.60;99.90
9497;DHT22;4786;51.270;4.456;2023-04-12T07:36:14;11.70;99.90
9497;DHT22;4786;51.270;4.456;2023-04-12T07:38:41;11.80;99.90
9497;DHT22;4786;51.270;4.456;2023-04-12T07:41:07;11.80;99.90
9497;DHT22;4786;51.270;4.456;2023-04-12T07:43:32;11.80;99.90
9497;DHT22;4786;51.270;4.456;2023-04-12T07:45:58;12.00;99.90
9497;DHT22;4786;51.270;4.456;2023-04-12T07:48:28;11.80;99.90
9497;DHT22;4786;51.270;4.456;2023-04-12T07:50:54;11.80;99.90
9497;DHT22;4786;51.270;4.456;2023-04-12T07:53:22;11.80;99.90
9497;DHT22;4786;51.270;4.456;2023-04-12T07:55:49;11.80;99.90
9497;DHT22;4786;51.270;4.456;2023-04-12T07:58:15;11.90;99.90
9497;DHT22;4786;51.270;4.456;2023-04-12T08:00:45;11.90;99.90
9497;DHT22;4786;51.270;4.456;2023-04-12T08:03:13;12.00;99.90
9497;DHT22;4786;51.270;4.456;2023-04-12T08:05:40;12.10;99.90
9497;DHT22;4786;51.270;4.456;2023-04-12T08:08:06;12.20;99.90
9497;DHT22;4786;51.270;4.456;2023-04-12T08:10:38;12.30;99.90
9497;DHT22;4786;51.270;4.456;2023-04-12T08:13:05;12.40;99.90
9497;DHT22;4786;51.270;4.456;2023-04-12T08:15:32;12.40;99.90
9497;DHT22;4786;51.270;4.456;2023-04-12T08:17:58;12.40;99.90
9497;DHT22;4786;51.270;4.456;2023-04-12T08:20:23;12.30;99.90
9497;DHT22;4786;51.270;4.456;2023-04-12T08:22:49;12.30;99.90
9497;DHT22;4786;51.270;4.456;2023-04-12T08:25:16;12.30;99.90
9497;DHT22;4786;51.270;4.456;2023-04-12T08:27:43;12.30;99.90
9497;DHT22;4786;51.270;4.456;2023-04-12T08:30:10;12.30;99.90
9497;DHT22;4786;51.270;4.456;2023-04-12T08:32:38;12.30;99.90
9497;DHT22;4786;51.270;4.456;2023-04-12T08:35:05;12.30;99.90
9497;DHT22;4786;51.270;4.456;2023-04-12T08:37:31;12.30;99.90
9497;DHT22;4786;51.270;4.456;2023-04-12T08:40:05;12.30;99.90
9497;DHT22;4786;51.270;4.456;2023-04-12T08:42:33;12.30;99.90
9497;DHT22;4786;51.270;4.456;2023-04-12T08:45:05;12.10;99.90
9497;DHT22;4786;51.270;4.456;2023-04-12T08:47:33;12.10;99.90
9497;DHT22;4786;51.270;4.456;2023-04-12T08:50:00;12.10;99.90
9497;DHT22;4786;51.270;4.456;2023-04-12T08:52:27;12.00;99.90
9497;DHT22;4786;51.270;4.456;2023-04-12T08:54:54;11.90;99.90
9497;DHT22;4786;51.270;4.456;2023-04-12T08:57:23;11.90;99.90
9497;DHT22;4786;51.270;4.456;2023-04-12T08:59:58;12.00;99.90
9497;DHT22;4786;51.270;4.456;2023-04-12T09:02:24;11.90;99.90
9497;DHT22;4786;51.270;4.456;2023-04-12T09:04:50;11.80;99.90
9497;DHT22;4786;51.270;4.456;2023-04-12T09:07:17;11.80;99.90
9497;DHT22;4786;51.270;4.456;2023-04-12T09:09:45;11.80;99.90
9497;DHT22;4786;51.270;4.456;2023-04-12T09:12:11;11.80;99.90
9497;DHT22;4786;51.270;4.456;2023-04-12T09:14:38;11.80;99.90
9497;DHT22;4786;51.270;4.456;2023-04-12T09:17:19;11.80;99.90
9497;DHT22;4786;51.270;4.456;2023-04-12T09:19:45;11.80;99.90
9497;DHT22;4786;51.270;4.456;2023-04-12T09:22:11;11.90;99.90
9497;DHT22;4786;51.270;4.456;2023-04-12T09:24:48;11.90;99.90
9497;DHT22;4786;51.270;4.456;2023-04-12T09:27:15;12.00;99.90
9497;DHT22;4786;51.270;4.456;2023-04-12T09:29:41;12.00;99.90
9497;DHT22;4786;51.270;4.456;2023-04-12T09:32:09;12.00;99.90
9497;DHT22;4786;51.270;4.456;2023-04-12T09:34:36;11.90;99.90
9497;DHT22;4786;51.270;4.456;2023-04-12T09:37:15;12.00;99.90
9497;DHT22;4786;51.270;4.456;2023-04-12T09:39:42;12.00;99.90
9497;DHT22;4786;51.270;4.456;2023-04-12T09:42:12;12.00;99.90
9497;DHT22;4786;51.270;4.456;2023-04-12T09:44:39;12.20;99.90
9497;DHT22;4786;51.270;4.456;2023-04-12T09:47:05;12.20;99.90
9497;DHT22;4786;51.270;4.456;2023-04-12T09:49:41;12.30;99.90
9497;DHT22;4786;51.270;4.456;2023-04-12T09:52:09;12.50;99.90
9497;DHT22;4786;51.270;4.456;2023-04-12T09:54:45;12.60;99.90
9497;DHT22;4786;51.270;4.456;2023-04-12T09:57:12;12.70;99.90
9497;DHT22;4786;51.270;4.456;2023-04-12T09:59:40;12.80;99.90
9497;DHT22;4786;51.270;4.456;2023-04-12T10:02:16;12.90;99.90
9497;DHT22;4786;51.270;4.456;2023-04-12T10:04:43;13.10;99.90
9497;DHT22;4786;51.270;4.456;2023-04-12T10:07:12;13.30;99.90
9497;DHT22;4786;51.270;4.456;2023-04-12T10:09:42;13.40;99.90
9497;DHT22;4786;51.270;4.456;2023-04-12T10:12:08;13.50;99.90
9497;DHT22;4786;51.270;4.456;2023-04-12T10:14:34;13.40;99.90
9497;DHT22;4786;51.270;4.456;2023-04-12T10:17:02;13.10;99.90
9497;DHT22;4786;51.270;4.456;2023-04-12T10:19:30;13.30;99.90
9497;DHT22;4786;51.270;4.456;2023-04-12T10:21:59;13.00;99.90
9497;DHT22;4786;51.270;4.456;2023-04-12T10:24:27;12.80;99.90
9497;DHT22;4786;51.270;4.456;2023-04-12T10:26:54;12.60;99.90
9497;DHT22;4786;51.270;4.456;2023-04-12T10:29:28;12.50;99.90
9497;DHT22;4786;51.270;4.456;2023-04-12T10:31:56;12.40;99.90
9497;DHT22;4786;51.270;4.456;2023-04-12T10:34:26;12.50;99.90
9497;DHT22;4786;51.270;4.456;2023-04-12T10:36:59;12.60;99.90
9497;DHT22;4786;51.270;4.456;2023-04-12T10:39:41;12.70;99.90
9497;DHT22;4786;51.270;4.456;2023-04-12T10:44:53;13.00;99.90
9497;DHT22;4786;51.270;4.456;2023-04-12T10:55:40;12.40;99.90
9497;DHT22;4786;51.270;4.456;2023-04-12T10:58:10;12.30;99.90
9497;DHT22;4786;51.270;4.456;2023-04-12T11:03:24;12.20;99.90
9497;DHT22;4786;51.270;4.456;2023-04-12T11:05:59;12.30;99.90
9497;DHT22;4786;51.270;4.456;2023-04-12T11:08:28;12.40;99.90
9497;DHT22;4786;51.270;4.456;2023-04-12T11:11:04;12.40;99.90
9497;DHT22;4786;51.270;4.456;2023-04-12T11:13:42;12.40;99.90
9497;DHT22;4786;51.270;4.456;2023-04-12T11:16:09;12.40;99.90
9497;DHT22;4786;51.270;4.456;2023-04-12T11:18:55;12.50;99.90
9497;DHT22;4786;51.270;4.456;2023-04-12T11:21:21;12.70;99.90
9497;DHT22;4786;51.270;4.456;2023-04-12T11:23:50;13.00;99.90
9497;DHT22;4786;51.270;4.456;2023-04-12T11:26:20;13.00;99.90
9497;DHT22;4786;51.270;4.456;2023-04-12T11:28:46;13.20;99.90
9497;DHT22;4786;51.270;4.456;2023-04-12T11:31:19;13.40;99.90
9497;DHT22;4786;51.270;4.456;2023-04-12T11:33:44;13.50;99.90
9497;DHT22;4786;51.270;4.456;2023-04-12T11:36:11;13.70;99.90
9497;DHT22;4786;51.270;4.456;2023-04-12T11:38:38;13.70;99.90
9497;DHT22;4786;51.270;4.456;2023-04-12T11:41:05;13.70;99.90
9497;DHT22;4786;51.270;4.456;2023-04-12T11:43:36;13.70;99.90
9497;DHT22;4786;51.270;4.456;2023-04-12T11:46:05;13.80;99.90
9497;DHT22;4786;51.270;4.456;2023-04-12T11:48:31;13.80;99.90
9497;DHT22;4786;51.270;4.456;2023-04-12T11:50:57;13.50;99.90
9497;DHT22;4786;51.270;4.456;2023-04-12T11:53:27;12.80;99.90
9497;DHT22;4786;51.270;4.456;2023-04-12T11:55:57;12.20;99.90
9497;DHT22;4786;51.270;4.456;2023-04-12T11:58:26;11.90;99.90
9497;DHT22;4786;51.270;4.456;2023-04-12T12:00:53;11.60;99.90
9497;DHT22;4786;51.270;4.456;2023-04-12T12:03:20;11.50;99.90
9497;DHT22;4786;51.270;4.456;2023-04-12T12:05:47;11.30;99.90
9497;DHT22;4786;51.270;4.456;2023-04-12T12:08:13;11.10;99.90
9497;DHT22;4786;51.270;4.456;2023-04-12T12:10:39;11.00;99.90
9497;DHT22;4786;51.270;4.456;2023-04-12T12:13:10;11.10;99.90
9497;DHT22;4786;51.270;4.456;2023-04-12T12:15:36;11.50;99.90
9497;DHT22;4786;51.270;4.456;2023-04-12T12:18:02;11.70;99.90
9497;DHT22;4786;51.270;4.456;2023-04-12T12:20:28;12.10;99.90
9497;DHT22;4786;51.270;4.456;2023-04-12T12:22:54;12.30;99.90
9497;DHT22;4786;51.270;4.456;2023-04-12T12:25:22;12.60;99.90
9497;DHT22;4786;51.270;4.456;2023-04-12T12:27:47;12.90;99.90
9497;DHT22;4786;51.270;4.456;2023-04-12T12:30:17;13.10;99.90
9497;DHT22;4786;51.270;4.456;2023-04-12T12:32:49;13.30;99.90
9497;DHT22;4786;51.270;4.456;2023-04-12T12:35:15;13.40;99.90
9497;DHT22;4786;51.270;4.456;2023-04-12T12:37:49;13.40;99.90
9497;DHT22;4786;51.270;4.456;2023-04-12T12:40:15;13.70;99.90
9497;DHT22;4786;51.270;4.456;2023-04-12T12:42:50;14.00;99.90
9497;DHT22;4786;51.270;4.456;2023-04-12T12:45:18;14.30;99.90
9497;DHT22;4786;51.270;4.456;2023-04-12T12:47:58;14.40;99.90
9497;DHT22;4786;51.270;4.456;2023-04-12T12:50:26;14.40;99.90
9497;DHT22;4786;51.270;4.456;2023-04-12T12:52:53;14.30;99.90
9497;DHT22;4786;51.270;4.456;2023-04-12T12:55:20;14.40;99.90
9497;DHT22;4786;51.270;4.456;2023-04-12T12:57:48;14.30;99.90
9497;DHT22;4786;51.270;4.456;2023-04-12T13:00:15;14.30;99.90
9497;DHT22;4786;51.270;4.456;2023-04-12T13:02:42;14.30;99.90
9497;DHT22;4786;51.270;4.456;2023-04-12T13:05:09;14.30;99.90
9497;DHT22;4786;51.270;4.456;2023-04-12T13:07:35;14.30;99.90
9497;DHT22;4786;51.270;4.456;2023-04-12T13:10:02;14.40;99.90
9497;DHT22;4786;51.270;4.456;2023-04-12T13:12:29;14.30;99.90
9497;DHT22;4786;51.270;4.456;2023-04-12T13:14:56;14.20;99.90
9497;DHT22;4786;51.270;4.456;2023-04-12T13:17:21;14.10;99.90
9497;DHT22;4786;51.270;4.456;2023-04-12T13:19:47;13.90;99.90
9497;DHT22;4786;51.270;4.456;2023-04-12T13:22:14;13.20;99.90
9497;DHT22;4786;51.270;4.456;2023-04-12T13:24:41;12.70;99.90
9497;DHT22;4786;51.270;4.456;2023-04-12T13:27:07;12.20;99.90
9497;DHT22;4786;51.270;4.456;2023-04-12T13:29:33;11.80;99.90
9497;DHT22;4786;51.270;4.456;2023-04-12T13:31:59;11.60;99.90
9497;DHT22;4786;51.270;4.456;2023-04-12T13:34:25;11.70;99.90
9497;DHT22;4786;51.270;4.456;2023-04-12T13:36:51;11.70;99.90
9497;DHT22;4786;51.270;4.456;2023-04-12T13:39:17;11.80;99.90
9497;DHT22;4786;51.270;4.456;2023-04-12T13:41:43;12.00;99.90
9497;DHT22;4786;51.270;4.456;2023-04-12T13:44:09;12.30;99.90
9497;DHT22;4786;51.270;4.456;2023-04-12T13:46:34;12.50;99.90
9497;DHT22;4786;51.270;4.456;2023-04-12T13:49:00;12.50;99.90
9497;DHT22;4786;51.270;4.456;2023-04-12T13:51:26;12.60;99.90
9497;DHT22;4786;51.270;4.456;2023-04-12T13:53:56;12.70;99.90
9497;DHT22;4786;51.270;4.456;2023-04-12T13:56:22;12.90;99.90
9497;DHT22;4786;51.270;4.456;2023-04-12T13:58:48;13.00;99.90
9497;DHT22;4786;51.270;4.456;2023-04-12T14:01:13;12.80;99.90
9497;DHT22;4786;51.270;4.456;2023-04-12T14:03:39;12.80;99.90
9497;DHT22;4786;51.270;4.456;2023-04-12T14:06:06;12.90;99.90
9497;DHT22;4786;51.270;4.456;2023-04-12T14:08:32;13.00;99.90
9497;DHT22;4786;51.270;4.456;2023-04-12T14:10:59;13.00;99.90
9497;DHT22;4786;51.270;4.456;2023-04-12T14:13:26;13.30;99.90
9497;DHT22;4786;51.270;4.456;2023-04-12T14:15:52;13.30;99.90
9497;DHT22;4786;51.270;4.456;2023-04-12T14:18:19;13.30;99.90
9497;DHT22;4786;51.270;4.456;2023-04-12T14:20:47;13.30;99.90
9497;DHT22;4786;51.270;4.456;2023-04-12T14:23:17;13.50;99.90
9497;DHT22;4786;51.270;4.456;2023-04-12T14:25:42;13.50;99.90
9497;DHT22;4786;51.270;4.456;2023-04-12T14:28:08;13.60;99.90
9497;DHT22;4786;51.270;4.456;2023-04-12T14:30:35;13.80;99.90
9497;DHT22;4786;51.270;4.456;2023-04-12T14:33:00;13.80;99.90
9497;DHT22;4786;51.270;4.456;2023-04-12T14:35:26;14.00;99.90
9497;DHT22;4786;51.270;4.456;2023-04-12T14:37:52;14.00;99.90
9497;DHT22;4786;51.270;4.456;2023-04-12T14:40:18;14.00;99.90
9497;DHT22;4786;51.270;4.456;2023-04-12T14:42:44;13.90;99.90
9497;DHT22;4786;51.270;4.456;2023-04-12T14:45:10;14.00;99.90
9497;DHT22;4786;51.270;4.456;2023-04-12T14:47:36;14.20;99.90
9497;DHT22;4786;51.270;4.456;2023-04-12T14:50:02;13.90;99.90
9497;DHT22;4786;51.270;4.456;2023-04-12T14:52:29;13.70;99.90
9497;DHT22;4786;51.270;4.456;2023-04-12T14:54:54;13.70;99.90
9497;DHT22;4786;51.270;4.456;2023-04-12T14:57:21;13.60;99.90
9497;DHT22;4786;51.270;4.456;2023-04-12T14:59:47;13.60;99.90
9497;DHT22;4786;51.270;4.456;2023-04-12T15:02:13;13.50;99.90
9497;DHT22;4786;51.270;4.456;2023-04-12T15:04:39;13.50;99.90
9497;DHT22;4786;51.270;4.456;2023-04-12T15:07:05;13.50;99.90
9497;DHT22;4786;51.270;4.456;2023-04-12T15:09:30;13.50;99.90
9497;DHT22;4786;51.270;4.456;2023-04-12T15:11:57;13.50;99.90
9497;DHT22;4786;51.270;4.456;2023-04-12T15:14:26;13.60;99.90
9497;DHT22;4786;51.270;4.456;2023-04-12T15:16:52;13.60;99.90
9497;DHT22;4786;51.270;4.456;2023-04-12T15:19:20;13.70;99.90
9497;DHT22;4786;51.270;4.456;2023-04-12T15:21:52;13.80;99.90
9497;DHT22;4786;51.270;4.456;2023-04-12T15:24:22;13.80;99.90
9497;DHT22;4786;51.270;4.456;2023-04-12T15:26:49;14.00;99.90
9497;DHT22;4786;51.270;4.456;2023-04-12T15:29:16;14.00;99.90
9497;DHT22;4786;51.270;4.456;2023-04-12T15:31:42;14.10;99.90
9497;DHT22;4786;51.270;4.456;2023-04-12T15:34:09;14.10;99.90
9497;DHT22;4786;51.270;4.456;2023-04-12T15:36:36;14.00;99.90
9497;DHT22;4786;51.270;4.456;2023-04-12T15:39:02;13.80;99.90
9497;DHT22;4786;51.270;4.456;2023-04-12T15:41:38;13.60;99.90
9497;DHT22;4786;51.270;4.456;2023-04-12T15:44:05;13.50;99.90
9497;DHT22;4786;51.270;4.456;2023-04-12T15:46:32;13.50;99.90
9497;DHT22;4786;51.270;4.456;2023-04-12T15:48:59;13.40;99.90
9497;DHT22;4786;51.270;4.456;2023-04-12T15:51:26;13.30;99.90
9497;DHT22;4786;51.270;4.456;2023-04-12T15:53:53;13.30;99.90
9497;DHT22;4786;51.270;4.456;2023-04-12T15:56:20;13.30;99.90
9497;DHT22;4786;51.270;4.456;2023-04-12T15:58:55;13.40;99.90
9497;DHT22;4786;51.270;4.456;2023-04-12T16:01:22;13.50;99.90
9497;DHT22;4786;51.270;4.456;2023-04-12T16:03:49;13.60;99.90
9497;DHT22;4786;51.270;4.456;2023-04-12T16:06:16;13.70;99.90
9497;DHT22;4786;51.270;4.456;2023-04-12T16:08:49;13.70;99.90
9497;DHT22;4786;51.270;4.456;2023-04-12T16:11:16;13.70;99.90
9497;DHT22;4786;51.270;4.456;2023-04-12T16:13:43;13.70;99.90
9497;DHT22;4786;51.270;4.456;2023-04-12T16:16:13;13.70;99.90
9497;DHT22;4786;51.270;4.456;2023-04-12T16:18:40;13.70;99.90
9497;DHT22;4786;51.270;4.456;2023-04-12T16:21:07;13.60;99.90
9497;DHT22;4786;51.270;4.456;2023-04-12T16:23:33;13.50;99.90
9497;DHT22;4786;51.270;4.456;2023-04-12T16:25:59;13.60;99.90
9497;DHT22;4786;51.270;4.456;2023-04-12T16:28:26;13.50;99.90
9497;DHT22;4786;51.270;4.456;2023-04-12T16:30:52;13.30;99.90